createdAt,value
2023-05-14T00:00:40.228Z,9.22
2023-05-14T00:03:06.826Z,9.32
2023-05-14T00:05:33.350Z,9.39
2023-05-14T00:07:59.649Z,9.36
2023-05-14T00:10:27.246Z,9.30
2023-05-14T00:12:53.761Z,9.34
2023-05-14T00:15:20.056Z,9.35
2023-05-14T00:17:46.500Z,9.37
2023-05-14T00:20:12.948Z,9.39
2023-05-14T00:22:39.696Z,9.26
2023-05-14T00:25:07.897Z,9.18
2023-05-14T00:27:34.729Z,9.01
2023-05-14T00:30:01.101Z,8.90
2023-05-14T00:32:27.457Z,8.87
2023-05-14T00:34:53.766Z,8.95
2023-05-14T00:37:20.130Z,8.96
2023-05-14T00:39:46.444Z,9.17
2023-05-14T00:42:12.774Z,9.24
2023-05-14T00:44:39.083Z,9.21
2023-05-14T00:47:05.877Z,9.05
2023-05-14T00:49:32.301Z,9.02
2023-05-14T00:51:58.927Z,9.03
2023-05-14T00:54:25.492Z,9.03
2023-05-14T00:56:52.757Z,9.26
2023-05-14T00:59:19.047Z,9.31
2023-05-14T01:01:45.420Z,9.27
2023-05-14T01:04:12.377Z,9.24
2023-05-14T01:07:07.618Z,9.17
2023-05-14T01:09:49.978Z,9.43
2023-05-14T01:12:21.998Z,9.43
2023-05-14T01:14:55.011Z,9.45
2023-05-14T01:17:24.956Z,9.50
2023-05-14T01:19:51.429Z,9.54
2023-05-14T01:22:17.728Z,9.81
2023-05-14T01:24:44.042Z,9.83
2023-05-14T01:27:18.064Z,9.55
2023-05-14T01:29:53.163Z,9.23
2023-05-14T01:32:20.828Z,8.98
2023-05-14T01:34:48.465Z,8.78
2023-05-14T01:37:15.896Z,8.74
2023-05-14T01:39:42.910Z,8.62
2023-05-14T01:42:10.184Z,8.45
2023-05-14T01:44:36.488Z,8.41
2023-05-14T01:47:02.804Z,8.30
2023-05-14T01:49:29.100Z,8.36
2023-05-14T01:51:55.406Z,8.54
2023-05-14T01:54:21.696Z,8.64
2023-05-14T01:56:48.000Z,8.50
2023-05-14T01:59:14.297Z,8.29
2023-05-14T02:01:40.645Z,8.33
2023-05-14T02:04:06.957Z,8.43
2023-05-14T02:06:33.319Z,8.65
2023-05-14T02:09:00.319Z,8.41
2023-05-14T02:11:26.633Z,8.26
2023-05-14T02:13:52.980Z,8.59
2023-05-14T02:16:19.348Z,8.74
2023-05-14T02:18:45.756Z,8.74
2023-05-14T02:21:12.137Z,8.76
2023-05-14T02:23:41.976Z,8.83
2023-05-14T02:26:09.758Z,8.93
2023-05-14T02:28:36.199Z,9.04
2023-05-14T02:31:02.538Z,9.02
2023-05-14T02:33:28.947Z,8.98
2023-05-14T02:35:55.278Z,9.13
2023-05-14T02:38:22.447Z,8.96
2023-05-14T02:40:48.818Z,8.98
2023-05-14T02:43:15.135Z,9.07
2023-05-14T02:45:41.436Z,8.92
2023-05-14T02:48:07.842Z,8.93
2023-05-14T02:50:34.189Z,8.75
2023-05-14T02:53:00.489Z,8.64
2023-05-14T02:55:26.848Z,8.51
2023-05-14T02:57:53.181Z,8.51
2023-05-14T03:00:19.851Z,8.29
2023-05-14T03:02:46.538Z,8.19
2023-05-14T03:05:13.211Z,8.15
2023-05-14T03:07:39.543Z,8.26
2023-05-14T03:10:06.364Z,8.24
2023-05-14T03:12:32.669Z,8.14
2023-05-14T03:14:58.993Z,8.03
2023-05-14T03:17:25.327Z,7.87
2023-05-14T03:19:51.735Z,7.80
2023-05-14T03:22:18.124Z,7.83
2023-05-14T03:24:44.437Z,7.83
2023-05-14T03:27:10.745Z,7.72
2023-05-14T03:29:37.063Z,7.57
2023-05-14T03:32:03.596Z,7.50
2023-05-14T03:34:29.980Z,7.49
2023-05-14T03:36:56.291Z,7.48
2023-05-14T03:39:22.607Z,7.52
2023-05-14T03:41:49.125Z,7.47
2023-05-14T03:44:15.434Z,7.38
2023-05-14T03:46:41.767Z,7.46
2023-05-14T03:49:08.181Z,7.47
2023-05-14T03:51:34.538Z,7.48
2023-05-14T03:54:01.353Z,7.50
2023-05-14T03:56:27.659Z,7.54
2023-05-14T03:58:53.970Z,7.66
2023-05-14T04:01:20.267Z,7.67
2023-05-14T04:03:46.710Z,7.77
2023-05-14T04:06:13.187Z,7.80
2023-05-14T04:08:39.504Z,7.88
2023-05-14T04:11:05.959Z,7.92
2023-05-14T04:13:32.266Z,7.99
2023-05-14T04:15:58.574Z,8.03
2023-05-14T04:18:25.216Z,8.17
2023-05-14T04:20:51.541Z,8.27
2023-05-14T04:23:17.873Z,8.34
2023-05-14T04:25:44.178Z,8.43
2023-05-14T04:28:10.483Z,8.50
2023-05-14T04:30:36.792Z,8.60
2023-05-14T04:33:03.247Z,8.67
2023-05-14T04:35:29.642Z,8.89
2023-05-14T04:37:55.969Z,9.37
2023-05-14T04:40:22.539Z,9.92
2023-05-14T04:42:49.093Z,10.27
2023-05-14T04:45:15.534Z,10.60
2023-05-14T04:47:42.270Z,10.71
2023-05-14T04:50:09.540Z,10.94
2023-05-14T04:52:36.037Z,11.22
2023-05-14T04:55:02.323Z,11.21
2023-05-14T04:57:28.652Z,11.00
2023-05-14T04:59:54.969Z,11.31
2023-05-14T05:02:21.303Z,11.38
2023-05-14T05:04:47.604Z,11.55
2023-05-14T05:07:13.946Z,11.64
2023-05-14T05:09:40.511Z,11.81
2023-05-14T05:12:07.173Z,11.56
2023-05-14T05:14:33.510Z,12.02
2023-05-14T05:16:59.837Z,12.86
2023-05-14T05:19:35.921Z,13.32
2023-05-14T05:22:06.481Z,13.42
2023-05-14T05:24:32.783Z,13.55
2023-05-14T05:26:59.100Z,13.67
2023-05-14T05:29:25.401Z,13.97
2023-05-14T05:31:51.808Z,14.23
2023-05-14T05:34:18.263Z,14.56
2023-05-14T05:36:44.574Z,14.34
2023-05-14T05:39:10.885Z,14.56
2023-05-14T05:41:37.193Z,15.08
2023-05-14T05:44:03.516Z,15.47
2023-05-14T05:46:29.922Z,15.73
2023-05-14T05:48:56.346Z,15.61
2023-05-14T05:51:22.826Z,15.86
2023-05-14T05:53:49.142Z,16.10
2023-05-14T05:56:15.463Z,17.25
2023-05-14T05:58:41.758Z,17.87
2023-05-14T06:01:08.095Z,18.10
2023-05-14T06:03:34.412Z,17.55
2023-05-14T06:06:00.744Z,16.84
2023-05-14T06:08:27.058Z,17.73
2023-05-14T06:10:53.348Z,18.29
2023-05-14T06:13:19.724Z,19.69
2023-05-14T06:15:46.020Z,20.28
2023-05-14T06:18:12.343Z,21.38
2023-05-14T06:20:38.650Z,22.03
2023-05-14T06:23:04.993Z,22.49
2023-05-14T06:25:31.316Z,22.15
2023-05-14T06:27:57.643Z,21.86
2023-05-14T06:30:24.117Z,21.63
2023-05-14T06:32:50.670Z,22.01
2023-05-14T06:35:18.074Z,22.24
2023-05-14T06:37:45.046Z,22.11
2023-05-14T06:40:12.434Z,21.88
2023-05-14T06:42:38.734Z,21.19
2023-05-14T06:45:06.228Z,20.52
2023-05-14T06:47:32.588Z,19.96
2023-05-14T06:49:59.050Z,19.28
2023-05-14T06:52:25.720Z,19.08
2023-05-14T06:54:52.055Z,19.12
2023-05-14T06:57:18.352Z,18.12
2023-05-14T06:59:44.696Z,18.17
2023-05-14T07:02:11.059Z,18.02
2023-05-14T07:04:37.404Z,17.71
2023-05-14T07:07:03.952Z,17.61
2023-05-14T07:09:30.263Z,17.64
2023-05-14T07:11:56.581Z,17.32
2023-05-14T07:14:22.960Z,17.02
2023-05-14T07:16:49.322Z,16.92
2023-05-14T07:19:15.747Z,16.49
2023-05-14T07:21:42.074Z,16.64
2023-05-14T07:24:08.484Z,16.67
2023-05-14T07:26:34.854Z,16.71
2023-05-14T07:29:01.152Z,16.41
2023-05-14T07:31:27.548Z,16.42
2023-05-14T07:33:53.896Z,16.49
2023-05-14T07:36:20.817Z,16.56
2023-05-14T07:38:47.204Z,16.56
2023-05-14T07:41:13.516Z,16.55
2023-05-14T07:43:39.807Z,16.64
2023-05-14T07:46:06.191Z,16.79
2023-05-14T07:48:32.547Z,16.97
2023-05-14T07:50:58.878Z,17.25
2023-05-14T07:53:25.271Z,17.45
2023-05-14T07:55:51.637Z,17.54
2023-05-14T07:58:18.029Z,17.68
2023-05-14T08:00:44.371Z,17.63
2023-05-14T08:03:10.854Z,17.65
2023-05-14T08:05:37.311Z,17.72
2023-05-14T08:08:03.758Z,17.89
2023-05-14T08:10:30.320Z,18.13
2023-05-14T08:12:56.780Z,18.34
2023-05-14T08:15:24.580Z,18.48
2023-05-14T08:17:52.744Z,18.67
2023-05-14T08:20:19.262Z,18.76
2023-05-14T08:22:45.610Z,18.90
2023-05-14T08:25:12.070Z,18.76
2023-05-14T08:27:38.386Z,19.09
2023-05-14T08:30:05.248Z,19.30
2023-05-14T08:32:31.748Z,19.58
2023-05-14T08:34:58.111Z,19.99
2023-05-14T08:37:24.512Z,19.84
2023-05-14T08:39:50.807Z,19.80
2023-05-14T08:42:21.120Z,19.65
2023-05-14T08:45:00.000Z,19.78
2023-05-14T08:47:26.484Z,19.98
2023-05-14T08:49:58.472Z,19.68
2023-05-14T08:52:24.782Z,19.79
2023-05-14T08:54:52.857Z,19.58
2023-05-14T08:57:20.394Z,19.76
2023-05-14T08:59:46.906Z,19.29
2023-05-14T09:02:15.950Z,19.73
2023-05-14T09:04:42.548Z,20.08
2023-05-14T09:07:08.845Z,20.17
2023-05-14T09:09:35.229Z,20.35
2023-05-14T09:12:01.745Z,20.31
2023-05-14T09:14:28.098Z,20.63
2023-05-14T09:16:54.473Z,20.65
2023-05-14T09:19:21.180Z,19.36
2023-05-14T09:21:49.242Z,20.04
2023-05-14T09:24:23.312Z,20.48
2023-05-14T09:26:54.438Z,20.75
2023-05-14T09:29:20.838Z,21.10
2023-05-14T09:31:49.893Z,20.04
2023-05-14T09:34:26.041Z,19.74
2023-05-14T09:36:57.444Z,20.51
2023-05-14T09:39:25.217Z,20.79
2023-05-14T09:41:52.029Z,21.12
2023-05-14T09:44:19.396Z,21.41
2023-05-14T09:46:46.587Z,21.08
2023-05-14T09:49:13.317Z,21.07
2023-05-14T09:51:39.924Z,21.24
2023-05-14T09:54:07.410Z,21.33
2023-05-14T09:56:34.673Z,21.46
2023-05-14T09:59:01.010Z,21.91
2023-05-14T10:01:29.046Z,21.99
2023-05-14T10:03:56.318Z,21.92
2023-05-14T10:06:28.243Z,21.83
2023-05-14T10:09:02.718Z,21.87
2023-05-14T10:11:32.629Z,22.12
2023-05-14T10:14:09.078Z,22.10
2023-05-14T10:16:40.767Z,22.03
2023-05-14T10:19:12.004Z,22.44
2023-05-14T10:21:41.016Z,22.55
2023-05-14T10:24:08.720Z,22.93
2023-05-14T10:26:37.996Z,23.12
2023-05-14T10:29:09.235Z,21.24
2023-05-14T10:31:54.536Z,21.36
2023-05-14T10:34:33.210Z,21.63
2023-05-14T10:37:01.564Z,21.64
2023-05-14T10:39:51.645Z,21.21
2023-05-14T10:42:27.076Z,21.86
2023-05-14T10:44:55.793Z,22.29
2023-05-14T10:47:22.815Z,22.80
2023-05-14T10:49:49.518Z,22.04
2023-05-14T10:52:18.108Z,21.87
2023-05-14T10:54:54.005Z,21.65
2023-05-14T10:57:22.716Z,21.75
2023-05-14T10:59:51.462Z,21.63
2023-05-14T11:02:38.029Z,22.16
2023-05-14T11:05:09.674Z,22.39
2023-05-14T11:07:38.076Z,22.08
2023-05-14T11:10:09.925Z,21.97
2023-05-14T11:12:38.500Z,21.52
2023-05-14T11:15:09.833Z,21.07
2023-05-14T11:17:37.514Z,20.89
2023-05-14T11:20:04.671Z,20.76
2023-05-14T11:22:31.083Z,19.98
2023-05-14T11:24:57.464Z,20.51
2023-05-14T11:27:24.026Z,20.20
2023-05-14T11:29:50.876Z,20.03
2023-05-14T11:32:18.093Z,20.00
2023-05-14T11:34:45.527Z,19.48
2023-05-14T11:37:13.008Z,19.72
2023-05-14T11:39:39.993Z,19.61
2023-05-14T11:42:11.518Z,19.57
2023-05-14T11:44:38.700Z,19.71
2023-05-14T11:47:05.348Z,20.02
2023-05-14T11:49:31.791Z,20.36
2023-05-14T11:51:59.602Z,20.39
2023-05-14T11:54:29.774Z,20.65
2023-05-14T11:56:57.129Z,20.52
2023-05-14T11:59:31.885Z,20.38
2023-05-14T12:01:58.624Z,20.64
2023-05-14T12:04:25.615Z,21.04
2023-05-14T12:06:52.946Z,20.96
2023-05-14T12:09:20.434Z,21.22
2023-05-14T12:11:48.026Z,21.35
2023-05-14T12:14:19.781Z,21.21
2023-05-14T12:16:47.463Z,19.93
2023-05-14T12:19:19.380Z,20.71
2023-05-14T12:21:48.176Z,21.05
2023-05-14T12:24:17.954Z,21.49
2023-05-14T12:26:48.004Z,21.16
2023-05-14T12:29:15.585Z,21.29
2023-05-14T12:31:43.651Z,21.20
2023-05-14T12:34:09.960Z,21.15
2023-05-14T12:36:36.305Z,20.97
2023-05-14T12:39:02.826Z,20.88
2023-05-14T12:41:30.571Z,20.87
2023-05-14T12:43:57.754Z,20.90
2023-05-14T12:46:26.027Z,20.87
2023-05-14T12:48:53.512Z,21.24
2023-05-14T12:51:20.400Z,21.42
2023-05-14T12:53:46.987Z,21.76
2023-05-14T12:56:13.665Z,22.19
2023-05-14T12:58:40.218Z,22.34
2023-05-14T13:01:06.653Z,22.38
2023-05-14T13:03:33.158Z,22.37
2023-05-14T13:05:59.534Z,22.60
2023-05-14T13:08:26.224Z,22.84
2023-05-14T13:10:53.881Z,22.55
2023-05-14T13:13:20.244Z,22.28
2023-05-14T13:15:46.723Z,22.66
2023-05-14T13:18:17.478Z,22.32
2023-05-14T13:20:45.930Z,21.13
2023-05-14T13:23:12.233Z,20.58
2023-05-14T13:25:38.573Z,20.16
2023-05-14T13:28:05.016Z,21.09
2023-05-14T13:30:31.455Z,20.35
2023-05-14T13:32:59.887Z,20.89
2023-05-14T13:35:26.415Z,20.91
2023-05-14T13:37:52.897Z,21.34
2023-05-14T13:40:19.284Z,21.42
2023-05-14T13:42:45.591Z,21.75
2023-05-14T13:45:12.552Z,21.88
2023-05-14T13:47:40.242Z,21.61
2023-05-14T13:50:07.609Z,21.52
2023-05-14T13:52:33.934Z,20.87
2023-05-14T13:55:00.273Z,20.62
2023-05-14T13:57:26.579Z,20.37
2023-05-14T13:59:52.949Z,20.52
2023-05-14T14:02:19.240Z,20.65
2023-05-14T14:04:45.587Z,20.14
2023-05-14T14:07:11.928Z,19.43
2023-05-14T14:09:38.257Z,19.50
2023-05-14T14:12:05.127Z,19.46
2023-05-14T14:14:31.579Z,19.34
2023-05-14T14:16:57.921Z,19.33
2023-05-14T14:19:24.276Z,19.32
2023-05-14T14:24:21.831Z,19.45
2023-05-14T14:26:48.157Z,19.54
2023-05-14T14:29:14.522Z,19.52
2023-05-14T14:31:40.937Z,19.83
2023-05-14T14:34:07.269Z,20.32
2023-05-14T14:36:33.588Z,20.84
2023-05-14T14:38:59.918Z,20.70
2023-05-14T14:41:26.236Z,21.10
2023-05-14T14:43:52.564Z,21.09
2023-05-14T14:46:18.950Z,21.27
2023-05-14T14:48:45.277Z,21.37
2023-05-14T14:51:11.595Z,22.15
2023-05-14T14:53:37.917Z,22.39
2023-05-14T14:56:04.738Z,22.37
2023-05-14T14:58:31.197Z,22.90
2023-05-14T15:00:58.239Z,23.16
2023-05-14T15:03:25.112Z,22.77
2023-05-14T15:05:51.893Z,22.88
2023-05-14T15:08:18.216Z,22.79
2023-05-14T15:10:45.103Z,22.84
2023-05-14T15:13:12.562Z,22.79
2023-05-14T15:15:38.846Z,22.61
2023-05-14T15:18:05.317Z,22.81
2023-05-14T15:20:31.670Z,22.70
2023-05-14T15:22:58.037Z,22.74
2023-05-14T15:25:25.413Z,22.55
2023-05-14T15:27:52.002Z,22.73
2023-05-14T15:30:19.570Z,22.36
2023-05-14T15:32:46.080Z,22.06
2023-05-14T15:35:12.659Z,21.76
2023-05-14T15:37:41.541Z,21.28
2023-05-14T15:40:08.743Z,21.10
2023-05-14T15:42:39.568Z,21.04
2023-05-14T15:45:06.209Z,20.62
2023-05-14T15:47:32.636Z,20.48
2023-05-14T15:49:59.517Z,20.73
2023-05-14T15:52:26.271Z,21.02
2023-05-14T15:54:52.662Z,21.29
2023-05-14T15:57:20.120Z,21.29
2023-05-14T15:59:47.220Z,21.20
2023-05-14T16:02:14.684Z,21.42
2023-05-14T16:04:41.165Z,21.56
2023-05-14T16:07:09.641Z,21.76
2023-05-14T16:09:36.703Z,21.67
2023-05-14T16:12:03.275Z,21.58
2023-05-14T16:14:29.692Z,21.62
2023-05-14T16:16:56.188Z,21.42
2023-05-14T16:19:23.514Z,21.25
2023-05-14T16:21:49.944Z,21.00
2023-05-14T16:24:18.443Z,20.59
2023-05-14T16:26:45.293Z,20.54
2023-05-14T16:29:11.924Z,20.39
2023-05-14T16:31:38.437Z,20.27
2023-05-14T16:34:04.835Z,20.17
2023-05-14T16:36:31.223Z,19.92
2023-05-14T16:39:07.281Z,19.75
2023-05-14T16:41:35.404Z,19.65
2023-05-14T16:44:01.842Z,19.51
2023-05-14T16:46:28.539Z,19.48
2023-05-14T16:48:54.997Z,19.43
2023-05-14T16:51:21.305Z,19.27
2023-05-14T16:53:47.620Z,19.40
2023-05-14T16:56:14.018Z,19.38
2023-05-14T16:58:40.316Z,19.43
2023-05-14T17:01:09.417Z,19.36
2023-05-14T17:03:36.215Z,19.30
2023-05-14T17:06:02.592Z,19.10
2023-05-14T17:08:28.930Z,19.15
2023-05-14T17:10:55.245Z,19.20
2023-05-14T17:13:21.572Z,19.12
2023-05-14T17:15:47.874Z,19.19
2023-05-14T17:18:14.221Z,19.25
2023-05-14T17:20:40.576Z,19.12
2023-05-14T17:23:06.869Z,19.08
2023-05-14T17:25:33.251Z,19.06
2023-05-14T17:27:59.549Z,18.98
2023-05-14T17:30:25.940Z,18.85
2023-05-14T17:32:52.345Z,18.71
2023-05-14T17:35:18.681Z,18.60
2023-05-14T17:37:45.043Z,18.42
2023-05-14T17:40:11.869Z,18.40
2023-05-14T17:42:38.187Z,18.37
2023-05-14T17:45:04.944Z,18.29
2023-05-14T17:47:31.313Z,18.22
2023-05-14T17:49:57.697Z,18.02
2023-05-14T17:52:24.067Z,17.82
2023-05-14T17:54:50.398Z,17.47
2023-05-14T17:57:16.890Z,17.08
2023-05-14T17:59:43.236Z,16.62
2023-05-14T18:02:09.598Z,16.04
2023-05-14T18:04:35.897Z,15.75
2023-05-14T18:07:02.374Z,15.26
2023-05-14T18:09:28.696Z,14.54
2023-05-14T18:11:56.902Z,13.95
2023-05-14T18:14:23.497Z,13.75
2023-05-14T18:16:49.962Z,13.81
2023-05-14T18:19:16.352Z,13.70
2023-05-14T18:21:42.669Z,13.53
2023-05-14T18:24:09.027Z,13.52
2023-05-14T18:26:35.414Z,13.44
2023-05-14T18:29:01.799Z,13.51
2023-05-14T18:31:28.327Z,13.53
2023-05-14T18:33:54.855Z,13.43
2023-05-14T18:36:21.241Z,13.21
2023-05-14T18:38:47.615Z,13.29
2023-05-14T18:41:14.007Z,13.41
2023-05-14T18:43:40.300Z,13.85
2023-05-14T18:46:06.647Z,14.04
2023-05-14T18:48:32.979Z,13.99
2023-05-14T18:51:00.710Z,14.23
2023-05-14T18:53:27.027Z,14.00
2023-05-14T18:55:53.320Z,13.91
2023-05-14T18:58:19.674Z,13.82
2023-05-14T19:00:46.304Z,13.65
2023-05-14T19:03:12.677Z,13.56
2023-05-14T19:05:39.130Z,13.47
2023-05-14T19:08:06.359Z,13.48
2023-05-14T19:10:32.713Z,13.55
2023-05-14T19:12:59.172Z,13.52
2023-05-14T19:15:25.826Z,13.56
2023-05-14T19:17:52.600Z,13.74
2023-05-14T19:20:19.236Z,13.81
2023-05-14T19:22:45.600Z,13.79
2023-05-14T19:25:11.991Z,13.66
2023-05-14T19:27:38.449Z,13.69
2023-05-14T19:30:05.426Z,13.69
2023-05-14T19:32:31.783Z,13.55
2023-05-14T19:34:58.134Z,13.38
2023-05-14T19:37:24.453Z,13.34
2023-05-14T19:39:50.826Z,13.36
2023-05-14T19:42:17.234Z,13.41
2023-05-14T19:44:43.544Z,13.36
2023-05-14T19:47:10.027Z,13.28
2023-05-14T19:49:36.524Z,13.22
2023-05-14T19:52:02.866Z,13.10
2023-05-14T19:54:29.185Z,12.97
2023-05-14T19:56:55.512Z,12.78
2023-05-14T19:59:21.844Z,12.66
2023-05-14T20:01:48.158Z,12.62
2023-05-14T20:04:14.504Z,12.68
2023-05-14T20:06:40.849Z,13.01
2023-05-14T20:09:07.149Z,13.01
2023-05-14T20:11:33.476Z,12.99
2023-05-14T20:13:59.775Z,12.82
2023-05-14T20:16:26.182Z,12.70
2023-05-14T20:18:53.394Z,12.69
2023-05-14T20:21:19.768Z,12.65
2023-05-14T20:23:46.132Z,12.53
2023-05-14T20:26:12.452Z,12.43
2023-05-14T20:28:38.797Z,12.38
2023-05-14T20:31:07.987Z,12.41
2023-05-14T20:33:34.604Z,12.44
2023-05-14T20:36:01.046Z,12.44
2023-05-14T20:38:27.364Z,12.51
2023-05-14T20:40:53.653Z,12.48
2023-05-14T20:43:19.966Z,12.55
2023-05-14T20:45:46.296Z,12.48
2023-05-14T20:48:12.720Z,12.43
2023-05-14T20:50:42.399Z,12.35
2023-05-14T20:53:08.710Z,12.32
2023-05-14T20:55:35.037Z,12.28
2023-05-14T20:58:01.360Z,12.15
2023-05-14T21:00:27.756Z,12.12
2023-05-14T21:02:54.157Z,12.03
2023-05-14T21:05:20.542Z,12.08
2023-05-14T21:07:46.877Z,12.04
2023-05-14T21:10:13.326Z,11.97
2023-05-14T21:12:39.659Z,11.98
2023-05-14T21:15:06.512Z,11.79
2023-05-14T21:17:32.857Z,11.85
2023-05-14T21:19:59.196Z,11.80
2023-05-14T21:22:27.185Z,11.79
2023-05-14T21:24:55.275Z,11.64
2023-05-14T21:27:22.065Z,11.59
2023-05-14T21:29:48.387Z,11.49
2023-05-14T21:32:14.706Z,11.49
2023-05-14T21:34:41.046Z,11.47
2023-05-14T21:37:07.418Z,11.37
2023-05-14T21:39:33.810Z,11.29
2023-05-14T21:42:00.126Z,11.25
2023-05-14T21:44:26.449Z,11.28
2023-05-14T21:46:52.775Z,11.24
2023-05-14T21:49:19.099Z,11.20
2023-05-14T21:51:45.434Z,11.26
2023-05-14T21:54:11.754Z,11.19
2023-05-14T21:56:38.169Z,11.06
2023-05-14T21:59:04.461Z,10.82
2023-05-14T22:01:30.980Z,10.81
2023-05-14T22:03:58.183Z,10.90
2023-05-14T22:06:24.693Z,10.97
2023-05-14T22:08:51.052Z,10.96
2023-05-14T22:11:17.370Z,10.96
2023-05-14T22:13:43.700Z,10.94
2023-05-14T22:16:13.236Z,10.88
2023-05-14T22:18:40.536Z,10.92
2023-05-14T22:21:06.861Z,10.95
2023-05-14T22:23:33.222Z,11.08
2023-05-14T22:25:59.574Z,10.93
2023-05-14T22:28:26.037Z,10.84
2023-05-14T22:30:52.459Z,10.81
2023-05-14T22:33:18.773Z,10.92
2023-05-14T22:35:45.090Z,10.85
2023-05-14T22:38:12.405Z,10.72
2023-05-14T22:40:38.756Z,10.61
2023-05-14T22:43:05.077Z,10.58
2023-05-14T22:45:31.412Z,10.50
2023-05-14T22:47:58.327Z,10.40
2023-05-14T22:50:24.663Z,10.36
2023-05-14T22:52:50.973Z,10.14
2023-05-14T22:55:17.403Z,10.12
2023-05-14T22:57:43.809Z,10.31
2023-05-14T23:00:10.744Z,10.20
2023-05-14T23:02:37.085Z,10.19
2023-05-14T23:05:03.697Z,10.16
2023-05-14T23:07:30.015Z,10.11
2023-05-14T23:09:56.428Z,10.11
2023-05-14T23:12:22.769Z,10.18
2023-05-14T23:14:49.076Z,10.12
2023-05-14T23:17:17.085Z,10.00
2023-05-14T23:19:43.430Z,9.92
2023-05-14T23:22:09.771Z,9.91
2023-05-14T23:24:36.103Z,9.88
2023-05-14T23:27:02.425Z,9.89
2023-05-14T23:29:28.835Z,9.96
2023-05-14T23:31:55.239Z,9.91
2023-05-14T23:34:21.596Z,9.90
2023-05-14T23:36:48.151Z,9.88
2023-05-14T23:39:14.578Z,9.90
2023-05-14T23:41:40.875Z,9.90
2023-05-14T23:44:07.236Z,9.93
2023-05-14T23:46:33.672Z,9.89
2023-05-14T23:49:01.105Z,9.83
2023-05-14T23:51:27.523Z,9.80
2023-05-14T23:53:53.920Z,9.71
2023-05-14T23:56:20.287Z,9.65
2023-05-14T23:58:46.611Z,9.61
